El Mirage, Arizona
Current Conditions -  °F | °C
As of 4:47 PM on Wednesday 22 Oct 2014 (Local Time) from KGEU Reporting Station
Few Clouds Few Clouds  
Wind Chill: 90°   Ceiling: Unl
Heat Index: 90°   Visibility: 20mi
Dew Point: 48°   Wind: 0mph
Humidity: 24%   Direction: NA
Pressure: 29.91"   Gusts: NA
Location:  33.62°N, 112.32°W
Report Text: KGEU 222347Z 00000KT 20SM FEW250 32/09 A2991
Loading
Personal Weather Stations






























Interactive Weather Map
Tropical Storm Tracking
New forecast layout! Learn more

10-Day Weather Forecast

Advertisements
Track Severe Weather on mobile